Time;durP1;ratioP1;P1;durP2;ratioP2;P2;SDS_P1;SDS_P2;PMS_P1;PMS_P2;Temp;Humidity;BMP_temperature;BMP_pressure;BME280_temperature;BME280_humidity;BME280_pressure;Samples;Min_cycle;Max_cycle;Signal;HPM_P1;HPM_P2
2021/04/20 00:00:56;;;;;;;19.88;14.02;;;5.70;99.90;;;;;;4749515;30;20060;-80
2021/04/20 00:03:27;;;;;;;18.55;12.40;;;5.70;99.90;;;;;;4749212;30;20475;-80
2021/04/20 00:05:54;;;;;;;21.08;13.55;;;5.80;99.90;;;;;;4749036;30;20147;-79
2021/04/20 00:08:25;;;;;;;18.90;13.55;;;5.80;99.90;;;;;;4748757;30;20125;-80
2021/04/20 00:10:56;;;;;;;18.95;13.85;;;5.80;99.90;;;;;;4750325;30;20144;-80
2021/04/20 00:13:28;;;;;;;18.30;13.43;;;5.80;99.90;;;;;;4749265;30;20044;-80
2021/04/20 00:15:59;;;;;;;18.20;13.25;;;5.80;99.90;;;;;;4748525;30;20059;-80
2021/04/20 00:18:31;;;;;;;20.73;14.23;;;5.80;99.90;;;;;;4748670;30;20134;-79
2021/04/20 00:21:03;;;;;;;19.02;13.20;;;5.80;99.90;;;;;;4748984;30;20152;-80
2021/04/20 00:23:34;;;;;;;20.75;13.05;;;5.90;99.90;;;;;;4749078;30;20056;-80
2021/04/20 00:26:05;;;;;;;19.63;13.02;;;5.90;99.90;;;;;;4748895;30;20457;-80
2021/04/20 00:28:37;;;;;;;19.98;13.30;;;5.90;99.90;;;;;;4748561;30;20056;-80
2021/04/20 00:31:08;;;;;;;19.25;13.30;;;5.90;99.90;;;;;;4749038;30;20412;-80
2021/04/20 00:33:42;;;;;;;19.65;13.65;;;6.00;99.90;;;;;;4748509;30;20052;-80
2021/04/20 00:36:14;;;;;;;19.92;13.82;;;5.90;99.90;;;;;;4748652;30;20048;-80
2021/04/20 00:38:46;;;;;;;20.45;14.82;;;5.90;99.90;;;;;;4748114;30;20075;-80
2021/04/20 00:41:17;;;;;;;19.35;12.93;;;5.90;99.90;;;;;;4734083;30;20048;-80
2021/04/20 00:43:49;;;;;;;19.85;12.55;;;5.90;99.90;;;;;;4748376;30;20387;-80
2021/04/20 00:46:23;;;;;;;21.42;13.80;;;5.90;99.90;;;;;;4734730;30;20051;-79
2021/04/20 00:48:54;;;;;;;;;;;5.90;99.90;;;;;;4748503;30;20088;-79
2021/04/20 00:51:26;;;;;;;22.27;13.55;;;5.80;99.90;;;;;;4744668;30;19926;-79
2021/04/20 00:53:52;;;;;;;18.45;12.85;;;5.80;99.90;;;;;;4748479;30;20052;-79
2021/04/20 00:56:19;;;;;;;19.92;13.38;;;5.80;99.90;;;;;;4748311;30;20420;-79
2021/04/20 00:58:50;;;;;;;19.23;12.52;;;5.80;99.90;;;;;;4747668;30;20052;-80
2021/04/20 01:01:21;;;;;;;21.63;14.98;;;5.70;99.90;;;;;;4749377;30;20344;-79
2021/04/20 01:03:48;;;;;;;20.13;13.82;;;5.70;99.90;;;;;;4747976;30;20075;-79
2021/04/20 01:06:19;;;;;;;21.52;14.70;;;5.60;99.90;;;;;;4748217;30;20066;-80
2021/04/20 01:08:51;;;;;;;21.70;14.85;;;5.60;99.90;;;;;;4747578;30;20137;-80
2021/04/20 01:11:23;;;;;;;23.17;14.98;;;5.60;99.90;;;;;;4747966;30;20048;-80
2021/04/20 01:13:54;;;;;;;22.48;14.30;;;5.60;99.90;;;;;;4733243;30;20075;-79
2021/04/20 01:16:26;;;;;;;21.13;14.70;;;5.60;99.90;;;;;;4748008;30;20048;-80
2021/04/20 01:18:57;;;;;;;22.45;15.30;;;5.60;99.90;;;;;;4747558;30;20048;-80
2021/04/20 01:21:29;;;;;;;23.45;14.93;;;5.60;99.90;;;;;;4749151;30;20062;-80
2021/04/20 01:24:09;;;;;;;24.33;14.77;;;5.60;99.90;;;;;;4747895;30;20531;-80
2021/04/20 01:26:43;;;;;;;22.80;15.05;;;5.60;99.90;;;;;;4748216;30;20054;-80
2021/04/20 01:29:14;;;;;;;25.88;15.55;;;5.60;99.90;;;;;;4747961;30;20044;-80
2021/04/20 01:31:46;;;;;;;23.50;15.93;;;5.60;99.90;;;;;;4748044;30;20332;-80
2021/04/20 01:34:18;;;;;;;25.33;16.17;;;5.60;99.90;;;;;;4747946;30;20052;-80
2021/04/20 01:36:50;;;;;;;27.67;17.45;;;5.60;99.90;;;;;;4747857;30;20052;-80
2021/04/20 01:39:21;;;;;;;26.13;17.02;;;5.70;99.90;;;;;;4747471;30;20101;-80
2021/04/20 01:41:53;;;;;;;30.13;17.73;;;5.70;99.90;;;;;;4747842;30;20060;-80
2021/04/20 01:44:25;;;;;;;24.13;17.05;;;5.70;99.90;;;;;;4747450;30;20060;-80
2021/04/20 01:46:56;;;;;;;27.17;17.65;;;5.70;99.90;;;;;;4747678;30;20412;-80
2021/04/20 01:49:28;;;;;;;24.90;16.25;;;5.60;99.90;;;;;;4747063;30;20139;-80
2021/04/20 01:51:59;;;;;;;26.10;17.20;;;5.70;99.90;;;;;;4747940;30;20056;-80
2021/04/20 01:54:31;;;;;;;26.27;16.73;;;5.70;99.90;;;;;;4748051;30;20076;-79
2021/04/20 01:57:02;;;;;;;27.13;16.98;;;5.70;99.90;;;;;;4733315;30;20453;-80
2021/04/20 01:59:34;;;;;;;26.52;16.73;;;5.70;99.90;;;;;;4747476;30;20463;-79
2021/04/20 02:02:06;;;;;;;24.50;16.33;;;5.70;99.90;;;;;;4747679;30;20419;-80
2021/04/20 02:04:34;;;;;;;26.00;18.45;;;5.70;99.90;;;;;;4747991;30;20067;-79
2021/04/20 02:07:05;;;;;;;33.97;18.70;;;5.60;99.90;;;;;;4748056;30;20500;-79
2021/04/20 02:09:37;;;;;;;28.70;19.52;;;5.60;99.90;;;;;;4750882;30;20079;-80
2021/04/20 02:12:08;;;;;;;32.75;19.67;;;5.60;99.90;;;;;;4736812;30;20044;-80
2021/04/20 02:14:40;;;;;;;29.42;19.10;;;5.60;99.90;;;;;;4751159;30;20044;-80
2021/04/20 02:17:11;;;;;;;32.58;20.55;;;5.60;99.90;;;;;;4750927;30;20527;-80
2021/04/20 02:19:43;;;;;;;32.05;20.40;;;5.60;99.90;;;;;;4750371;30;20044;-80
2021/04/20 02:22:15;;;;;;;34.13;20.77;;;5.70;99.90;;;;;;4735968;30;20062;-80
2021/04/20 02:24:46;;;;;;;33.13;20.50;;;5.70;99.90;;;;;;4736180;30;20106;-79
2021/04/20 02:27:18;;;;;;;37.40;20.85;;;5.70;99.90;;;;;;4750892;30;20066;-80
2021/04/20 02:29:49;;;;;;;33.85;20.33;;;5.80;99.90;;;;;;4750292;30;20467;-80
2021/04/20 02:32:20;;;;;;;28.95;18.92;;;5.80;99.90;;;;;;4750454;30;20044;-79
2021/04/20 02:34:52;;;;;;;29.63;19.52;;;5.80;99.90;;;;;;4750670;30;20513;-80
2021/04/20 02:37:23;;;;;;;27.52;19.17;;;5.80;99.90;;;;;;4750732;30;20056;-79
2021/04/20 02:39:50;;;;;;;29.67;19.63;;;5.80;99.90;;;;;;4750032;30;20048;-80
2021/04/20 02:42:23;;;;;;;34.08;18.63;;;5.80;99.90;;;;;;4750635;30;20131;-79
2021/04/20 02:44:58;;;;;;;29.33;19.42;;;5.80;99.90;;;;;;4735748;30;20171;-79
2021/04/20 02:47:30;;;;;;;27.45;17.20;;;5.90;99.90;;;;;;4735807;30;20052;-80
2021/04/20 02:49:56;;;;;;;28.85;19.38;;;5.80;99.90;;;;;;4750038;30;20064;-80
2021/04/20 02:52:28;;;;;;;29.33;18.50;;;5.80;99.90;;;;;;4750224;30;20143;-80
2021/04/20 02:54:59;;;;;;;27.00;18.17;;;5.80;99.90;;;;;;4750483;30;20056;-79
2021/04/20 02:57:35;;;;;;;26.02;17.88;;;5.80;99.90;;;;;;4750451;30;20155;-80
2021/04/20 03:00:11;;;;;;;31.27;18.98;;;5.80;99.90;;;;;;4750216;30;20135;-80
2021/04/20 03:02:44;;;;;;;28.40;19.05;;;5.80;99.90;;;;;;4734263;30;20055;-80
2021/04/20 03:05:17;;;;;;;;;;;5.80;99.90;;;;;;4751980;30;20106;-80
2021/04/20 03:07:48;;;;;;;26.85;16.90;;;5.80;99.90;;;;;;4749768;30;19936;-80
2021/04/20 03:10:20;;;;;;;27.20;17.77;;;5.80;99.90;;;;;;4749743;30;20040;-79
2021/04/20 03:12:52;;;;;;;29.60;18.35;;;5.80;99.90;;;;;;4750131;30;20055;-80
2021/04/20 03:15:23;;;;;;;26.70;17.52;;;5.80;99.90;;;;;;4750196;30;20622;-80
2021/04/20 03:17:50;;;;;;;26.60;17.83;;;5.90;99.90;;;;;;4749620;30;20156;-80
2021/04/20 03:20:21;;;;;;;27.08;18.30;;;5.90;99.90;;;;;;4734574;30;20087;-80
2021/04/20 03:22:54;;;;;;;24.25;17.13;;;5.90;99.90;;;;;;4749787;30;20060;-80
2021/04/20 03:25:28;;;;;;;29.45;19.65;;;5.90;99.90;;;;;;4749852;30;20421;-80
2021/04/20 03:27:59;;;;;;;30.42;18.98;;;5.90;99.90;;;;;;4749548;30;20440;-80
2021/04/20 03:30:32;;;;;;;28.15;18.38;;;5.90;99.90;;;;;;4751258;30;20048;-79
2021/04/20 03:33:32;;;;;;;28.13;17.15;;;5.90;99.90;;;;;;4735808;30;20044;-78
2021/04/20 03:36:19;;;;;;;31.08;19.10;;;5.90;99.90;;;;;;4750103;30;20095;-80
2021/04/20 03:39:11;;;;;;;28.30;17.65;;;5.90;99.90;;;;;;4749339;30;20048;-79
2021/04/20 03:42:01;;;;;;;28.75;19.48;;;5.90;99.90;;;;;;4749478;30;20148;-78
2021/04/20 03:44:38;;;;;;;30.00;19.38;;;5.80;99.90;;;;;;4749802;30;20287;-80
2021/04/20 03:47:17;;;;;;;32.22;21.20;;;5.80;99.90;;;;;;4735105;30;20052;-78
2021/04/20 03:49:47;;;;;;;29.00;20.02;;;5.80;99.90;;;;;;4748675;30;20135;-79
2021/04/20 03:52:39;;;;;;;34.40;22.77;;;5.80;99.90;;;;;;4735174;30;20052;-80
2021/04/20 03:55:14;;;;;;;33.15;23.08;;;5.80;99.90;;;;;;4749379;30;20097;-79
2021/04/20 03:57:46;;;;;;;29.05;17.98;;;5.80;99.90;;;;;;4734137;30;20495;-79
2021/04/20 04:00:18;;;;;;;30.35;19.05;;;5.80;99.90;;;;;;4749117;30;20056;-79
2021/04/20 04:02:52;;;;;;;33.40;20.30;;;5.80;99.90;;;;;;4750561;30;20048;-79
2021/04/20 04:05:25;;;;;;;;;;;5.70;99.90;;;;;;4748903;30;20060;-79
2021/04/20 04:07:59;;;;;;;32.58;19.77;;;5.70;99.90;;;;;;4748611;30;19930;-78
2021/04/20 04:10:33;;;;;;;34.15;20.83;;;5.70;99.90;;;;;;4748730;30;20070;-81
2021/04/20 04:13:07;;;;;;;35.22;20.85;;;5.60;99.90;;;;;;4733719;30;20146;-78
2021/04/20 04:15:39;;;;;;;32.65;21.70;;;5.60;99.90;;;;;;4748559;30;20055;-78
2021/04/20 04:18:14;;;;;;;36.00;21.33;;;5.50;99.90;;;;;;4748245;30;20048;-78
2021/04/20 04:20:48;;;;;;;34.00;20.70;;;5.50;99.90;;;;;;4748483;30;20056;-79
2021/04/20 04:23:24;;;;;;;35.53;21.40;;;5.40;99.90;;;;;;4748435;30;20048;-80
2021/04/20 04:26:06;;;;;;;39.72;22.05;;;5.40;99.90;;;;;;4753691;30;20066;-80
2021/04/20 04:28:39;;;;;;;40.22;22.88;;;5.40;99.90;;;;;;4731811;30;20048;-80
2021/04/20 04:31:11;;;;;;;37.38;22.25;;;5.40;99.90;;;;;;4764053;30;20051;-78
2021/04/20 04:33:44;;;;;;;41.05;23.13;;;5.40;99.90;;;;;;4736955;30;20047;-78
2021/04/20 04:36:16;;;;;;;41.28;23.98;;;5.40;99.90;;;;;;4752580;30;20579;-78
2021/04/20 04:38:47;;;;;;;38.28;24.02;;;5.40;99.90;;;;;;4736582;30;20039;-78
2021/04/20 04:41:19;;;;;;;36.58;21.98;;;5.40;99.90;;;;;;4736792;30;20533;-78
2021/04/20 04:43:50;;;;;;;39.25;23.13;;;5.40;99.90;;;;;;4750876;30;20142;-78
2021/04/20 04:46:17;;;;;;;39.40;23.25;;;5.40;99.90;;;;;;4736562;30;20060;-78
2021/04/20 04:48:49;;;;;;;39.95;24.60;;;5.50;99.90;;;;;;4751456;30;20050;-79
2021/04/20 04:51:21;;;;;;;35.05;23.35;;;5.50;99.90;;;;;;4737266;30;20105;-79
2021/04/20 04:53:52;;;;;;;37.13;23.75;;;5.50;99.90;;;;;;4751957;30;20415;-79
2021/04/20 04:56:25;;;;;;;35.33;22.88;;;5.60;99.90;;;;;;4737713;30;20093;-80
2021/04/20 04:58:59;;;;;;;41.58;23.77;;;5.60;99.90;;;;;;4736759;30;20043;-79
2021/04/20 05:01:31;;;;;;;35.80;22.10;;;5.60;99.90;;;;;;4751447;30;20292;-78
2021/04/20 05:04:10;;;;;;;40.55;24.10;;;5.60;99.90;;;;;;4737152;30;20055;-81
2021/04/20 05:06:49;;;;;;;37.53;23.50;;;5.60;99.90;;;;;;4737215;30;20393;-78
2021/04/20 05:09:23;;;;;;;35.47;22.17;;;5.70;99.90;;;;;;4750857;30;20059;-79
2021/04/20 05:11:54;;;;;;;40.65;26.10;;;5.70;99.90;;;;;;4737508;30;20070;-78
2021/04/20 05:14:26;;;;;;;44.55;24.60;;;5.70;99.90;;;;;;4751444;30;20052;-79
2021/04/20 05:16:57;;;;;;;36.10;22.42;;;5.80;99.90;;;;;;4737410;30;20155;-79
2021/04/20 05:19:30;;;;;;;36.58;23.02;;;5.80;99.90;;;;;;4767167;30;20733;-79
2021/04/20 05:26:12;;;;;;;37.63;24.00;;;5.80;99.90;;;;;;5055466;24;20142;-83
2021/04/20 05:28:43;;;;;;;35.00;22.95;;;5.80;99.90;;;;;;4743493;30;20051;-83
2021/04/20 05:31:10;;;;;;;43.08;26.77;;;5.80;99.90;;;;;;4756845;30;20056;-83
2021/04/20 05:33:37;;;;;;;38.75;23.88;;;5.80;99.90;;;;;;4758523;30;20462;-83
2021/04/20 05:36:08;;;;;;;38.42;22.90;;;5.80;99.90;;;;;;4756695;30;20059;-83
2021/04/20 05:38:35;;;;;;;40.78;23.95;;;5.80;99.90;;;;;;4758411;30;20047;-83
2021/04/20 05:41:04;;;;;;;41.55;24.75;;;5.80;99.90;;;;;;4743431;30;20079;-83
2021/04/20 05:46:47;;;;;;;41.65;23.73;;;5.80;99.90;;;;;;5342338;24;20055;-82
2021/04/20 05:49:15;;;;;;;41.67;24.73;;;5.80;99.90;;;;;;4747210;30;20062;-81
2021/04/20 05:54:44;;;;;;;40.13;24.67;;;5.80;99.90;;;;;;5092384;24;20063;-83
2021/04/20 05:57:11;;;;;;;43.25;27.88;;;5.80;99.90;;;;;;4748422;30;20146;-83
2021/04/20 05:59:38;;;;;;;45.28;26.92;;;5.90;99.90;;;;;;4748091;30;20066;-83
2021/04/20 06:02:05;;;;;;;43.45;26.38;;;5.90;99.90;;;;;;4801734;24;20276;-83
2021/04/20 06:04:32;;;;;;;41.00;26.73;;;5.90;99.90;;;;;;4748432;30;20055;-83
2021/04/20 06:06:58;;;;;;;41.35;25.02;;;5.90;99.90;;;;;;4763020;30;20056;-83
2021/04/20 06:09:25;;;;;;;42.85;28.13;;;6.00;99.90;;;;;;4761925;30;20052;-83
2021/04/20 06:15:10;;;;;;;43.00;25.40;;;6.00;99.90;;;;;;4993154;24;20071;-81
2021/04/20 06:17:39;;;;;;;39.70;24.95;;;6.00;99.90;;;;;;4748151;30;20063;-81
2021/04/20 06:20:13;;;;;;;40.42;24.30;;;6.00;99.90;;;;;;4761594;30;20059;-82
2021/04/20 06:22:47;;;;;;;42.47;24.42;;;5.90;99.90;;;;;;4748856;30;20059;-82
2021/04/20 06:25:18;;;;;;;43.25;24.88;;;6.00;99.90;;;;;;4762850;30;20060;-81
2021/04/20 06:27:47;;;;;;;41.08;25.30;;;6.10;99.90;;;;;;4761380;30;20083;-82
2021/04/20 06:30:15;;;;;;;40.20;24.60;;;6.20;99.90;;;;;;4761607;30;20048;-81
2021/04/20 06:32:48;;;;;;;41.50;24.67;;;6.20;99.90;;;;;;4768568;24;20047;-81
2021/04/20 06:35:18;;;;;;;41.65;24.60;;;6.30;99.90;;;;;;4760686;30;20055;-81
2021/04/20 06:37:47;;;;;;;45.38;26.35;;;6.30;99.90;;;;;;4744309;30;20063;-81
2021/04/20 06:40:16;;;;;;;49.90;30.13;;;6.30;99.90;;;;;;4758954;30;20116;-81
2021/04/20 06:42:55;;;;;;;56.95;36.80;;;6.40;99.90;;;;;;4740712;30;20059;-81
2021/04/20 06:45:36;;;;;;;42.10;26.75;;;6.50;99.90;;;;;;4741306;30;20119;-81
2021/04/20 06:48:36;;;;;;;48.90;30.38;;;6.50;99.90;;;;;;4741828;30;20052;-82
2021/04/20 06:51:20;;;;;;;48.13;28.58;;;6.50;99.90;;;;;;4740751;30;20511;-81
2021/04/20 06:53:57;;;;;;;50.80;30.88;;;6.50;99.90;;;;;;4725666;30;20086;-81
2021/04/20 06:56:36;;;;;;;51.20;29.77;;;6.50;99.90;;;;;;4746140;30;20170;-81
2021/04/20 06:59:26;;;;;;;55.60;34.40;;;6.60;99.90;;;;;;4751422;30;20481;-80
2021/04/20 07:19:54;;;;;;;37.70;23.70;;;6.80;99.90;;;;;;5196923;24;20063;-82
2021/04/20 10:26:10;;;;;;;26.08;17.30;;;11.90;99.90;;;;;;5367222;24;20059;-81
2021/04/20 10:28:41;;;;;;;25.90;18.13;;;11.90;99.90;;;;;;4757280;30;20108;-81
2021/04/20 10:31:38;;;;;;;26.27;17.98;;;12.00;99.90;;;;;;4756869;30;20519;-80
2021/04/20 10:34:09;;;;;;;23.52;16.88;;;12.00;99.90;;;;;;4790663;24;20047;-81
2021/04/20 10:36:54;;;;;;;24.15;17.05;;;12.10;99.90;;;;;;4774985;30;20083;-81
2021/04/20 10:39:27;;;;;;;24.92;17.17;;;12.10;99.90;;;;;;4775064;30;20055;-81
2021/04/20 10:56:31;;;;;;;24.88;17.35;;;12.10;99.90;;;;;;4930342;24;20063;-79
2021/04/20 10:59:04;;;;;;;25.30;17.50;;;12.00;99.90;;;;;;4741884;30;20123;-80
2021/04/20 11:01:32;;;;;;;26.65;18.35;;;12.00;99.90;;;;;;4742059;30;20397;-81
2021/04/20 11:04:01;;;;;;;24.75;17.17;;;11.90;99.90;;;;;;4755966;30;20138;-81
2021/04/20 11:06:46;;;;;;;23.98;17.48;;;11.90;99.90;;;;;;4755942;30;20052;-80
2021/04/20 11:09:13;;;;;;;26.48;17.67;;;11.90;99.90;;;;;;4741528;30;20542;-81
2021/04/20 11:11:47;;;;;;;22.90;16.63;;;11.90;99.90;;;;;;4741623;30;20044;-81
2021/04/20 11:14:45;;;;;;;25.33;16.60;;;11.80;99.90;;;;;;4756287;30;20404;-79
2021/04/20 11:17:44;;;;;;;24.27;16.65;;;11.80;99.90;;;;;;4742132;30;20511;-81
2021/04/20 11:20:27;;;;;;;24.25;17.30;;;11.90;99.90;;;;;;4756074;30;20056;-81
2021/04/20 11:25:57;;;;;;;23.70;16.70;;;11.80;99.90;;;;;;4824512;24;20106;-81
2021/04/20 11:28:35;;;;;;;22.80;15.90;;;11.70;99.90;;;;;;4743643;30;20516;-81
2021/04/20 11:31:06;;;;;;;23.45;15.32;;;11.80;99.90;;;;;;4743819;30;20048;-82
2021/04/20 11:36:32;;;;;;;23.83;15.85;;;11.90;99.90;;;;;;4771569;30;20058;-82
2021/04/20 11:39:12;;;;;;;21.23;16.13;;;12.10;99.90;;;;;;4773568;30;20066;-80
2021/04/20 11:44:48;;;;;;;19.88;14.73;;;12.50;99.90;;;;;;5601482;24;20051;-81
2021/04/20 11:47:15;;;;;;;19.60;15.07;;;12.90;99.90;;;;;;4757947;30;20055;-82
2021/04/20 11:49:57;;;;;;;19.75;14.55;;;13.20;99.90;;;;;;4755471;30;20059;-82
2021/04/20 11:59:54;;;;;;;18.73;14.00;;;12.90;99.90;;;;;;4769914;30;20500;-82
2021/04/20 12:02:30;;;;;;;19.67;14.98;;;12.70;99.90;;;;;;4750034;30;20420;-82
2021/04/20 12:05:06;;;;;;;22.45;15.85;;;12.60;99.90;;;;;;4752565;30;20056;-82
2021/04/20 12:15:19;;;;;;;20.15;15.23;;;12.20;99.90;;;;;;4787830;29;20062;-82
2021/04/20 12:17:47;;;;;;;21.85;16.17;;;12.20;99.90;;;;;;4758798;30;20427;-82
2021/04/20 12:20:24;;;;;;;20.80;15.32;;;12.20;99.90;;;;;;4773201;30;20096;-82
2021/04/20 12:29:25;;;;;;;19.42;14.05;;;12.30;99.90;;;;;;5233587;24;20062;-81
2021/04/20 12:31:52;;;;;;;19.25;14.13;;;12.30;99.90;;;;;;4774275;29;20055;-81
2021/04/20 12:34:28;;;;;;;22.13;15.15;;;12.30;99.90;;;;;;4758448;30;20047;-80
2021/04/20 12:37:01;;;;;;;18.48;13.82;;;12.40;99.90;;;;;;4757902;30;20054;-81
2021/04/20 12:39:40;;;;;;;20.70;13.98;;;12.50;99.90;;;;;;4772599;29;20059;-81
2021/04/20 12:42:19;;;;;;;21.08;13.98;;;12.60;99.90;;;;;;4758319;30;20051;-81
2021/04/20 12:44:49;;;;;;;19.75;15.02;;;12.60;99.90;;;;;;4772421;30;20510;-81
2021/04/20 12:47:30;;;;;;;19.52;14.05;;;12.70;99.90;;;;;;4758397;30;20500;-80
2021/04/20 12:50:05;;;;;;;18.20;13.02;;;12.70;99.90;;;;;;4758483;30;20055;-81
2021/04/20 12:55:29;;;;;;;15.70;12.05;;;12.80;99.90;;;;;;5826354;24;20889;-81
2021/04/20 12:58:08;;;;;;;16.83;12.18;;;12.80;99.90;;;;;;4754161;30;20047;-81
2021/04/20 13:00:36;;;;;;;17.15;12.23;;;12.80;99.90;;;;;;4740465;30;20059;-82
2021/04/20 13:32:23;;;;;;;16.35;12.70;;;14.30;99.90;;;;;;5611908;24;20054;-81
2021/04/20 13:34:56;;;;;;;21.65;13.23;;;14.50;99.30;;;;;;4746562;30;20078;-81
2021/04/20 13:37:35;;;;;;;15.63;12.13;;;14.40;98.80;;;;;;4764689;30;20060;-81
2021/04/20 13:40:15;;;;;;;13.73;11.38;;;14.40;97.30;;;;;;4754829;30;20568;-79
2021/04/20 13:42:57;;;;;;;15.70;11.80;;;14.30;96.80;;;;;;4757070;30;20047;-81
2021/04/20 13:45:35;;;;;;;16.08;11.43;;;14.10;96.30;;;;;;4758224;29;20513;-81
2021/04/20 13:48:04;;;;;;;16.00;11.13;;;13.90;96.10;;;;;;4772651;30;20150;-80
2021/04/20 13:50:36;;;;;;;15.82;11.63;;;13.80;96.10;;;;;;4755685;30;20646;-80
2021/04/20 13:53:11;;;;;;;13.75;10.60;;;13.70;94.80;;;;;;4771150;30;20051;-80
2021/04/20 13:55:39;;;;;;;14.38;10.93;;;13.70;95.30;;;;;;4756553;29;20501;-80
2021/04/20 13:58:12;;;;;;;13.65;10.77;;;13.50;94.80;;;;;;4752659;30;20047;-82
2021/04/20 14:00:48;;;;;;;14.82;10.45;;;13.50;95.10;;;;;;4745198;30;20056;-81
2021/04/20 14:03:42;;;;;;;15.77;11.10;;;13.80;95.70;;;;;;4762711;30;20056;-81
2021/04/20 14:10:54;;;;;;;14.05;11.07;;;14.70;92.00;;;;;;4779542;30;20104;-76
2021/04/20 14:13:39;;;;;;;16.33;10.20;;;15.30;90.80;;;;;;4750449;30;20062;-76
2021/04/20 14:16:16;;;;;;;16.02;11.25;;;15.80;84.20;;;;;;4770655;30;20046;-77
2021/04/20 14:18:52;;;;;;;17.95;11.70;;;15.80;80.50;;;;;;4754410;30;20047;-77
2021/04/20 14:21:21;;;;;;;13.75;9.43;;;16.00;79.10;;;;;;4770849;30;20446;-76
2021/04/20 14:23:53;;;;;;;17.40;11.32;;;16.30;76.60;;;;;;4755835;30;20629;-77
2021/04/20 14:26:26;;;;;;;15.77;10.98;;;16.60;75.30;;;;;;4755765;30;20051;-77
2021/04/20 14:29:07;;;;;;;16.77;11.30;;;16.60;72.70;;;;;;4769736;30;20405;-76
2021/04/20 14:31:39;;;;;;;15.20;11.85;;;16.60;71.50;;;;;;4756508;30;20039;-77
2021/04/20 14:34:14;;;;;;;17.88;12.82;;;16.80;68.10;;;;;;4770642;30;20078;-78
2021/04/20 14:36:51;;;;;;;19.48;13.73;;;16.90;73.60;;;;;;4770702;30;20078;-77
2021/04/20 14:39:26;;;;;;;17.92;14.40;;;16.90;76.20;;;;;;4755686;30;20043;-78
2021/04/20 14:41:53;;;;;;;17.38;13.52;;;16.80;77.10;;;;;;4755925;29;20063;-77
2021/04/20 14:44:27;;;;;;;16.45;13.02;;;16.60;75.20;;;;;;4769689;30;20138;-77
2021/04/20 14:47:11;;;;;;;17.80;14.32;;;16.60;76.50;;;;;;4770501;30;20047;-76
2021/04/20 14:49:48;;;;;;;18.02;13.50;;;16.50;76.70;;;;;;4771690;30;20720;-75
2021/04/20 14:52:22;;;;;;;16.95;14.05;;;16.50;77.00;;;;;;4738379;30;20527;-76
2021/04/20 14:54:57;;;;;;;16.33;13.05;;;16.80;77.40;;;;;;4738568;30;20504;-76
2021/04/20 14:57:35;;;;;;;15.23;11.85;;;17.30;76.90;;;;;;4768641;30;20052;-76
2021/04/20 15:00:05;;;;;;;16.65;12.70;;;18.00;70.50;;;;;;4752008;30;20055;-77
2021/04/20 15:02:40;;;;;;;16.55;13.13;;;18.40;68.10;;;;;;4738210;30;20091;-76
2021/04/20 15:05:12;;;;;;;18.00;14.68;;;18.90;66.90;;;;;;4753254;30;20052;-76
2021/04/20 15:07:56;;;;;;;19.98;13.35;;;18.80;65.20;;;;;;4752360;30;20139;-77
2021/04/20 15:10:36;;;;;;;15.57;12.65;;;19.10;66.00;;;;;;4752365;30;20052;-76
2021/04/20 15:13:19;;;;;;;17.00;12.85;;;19.20;62.90;;;;;;4749194;30;20135;-76
2021/04/20 15:15:55;;;;;;;18.07;13.17;;;19.20;61.00;;;;;;4751643;30;20044;-76
2021/04/20 15:18:31;;;;;;;15.63;13.00;;;19.60;63.50;;;;;;4751045;30;20049;-76
2021/04/20 15:21:33;;;;;;;15.90;12.32;;;20.00;59.70;;;;;;4752734;30;20401;-77
2021/04/20 15:24:17;;;;;;;14.98;12.40;;;20.30;60.70;;;;;;4766939;30;20047;-76
2021/04/20 15:26:52;;;;;;;18.10;12.82;;;20.40;59.60;;;;;;4780266;30;20073;-80
2021/04/20 15:29:30;;;;;;;14.63;11.90;;;20.30;58.50;;;;;;4768005;30;20101;-81
2021/04/20 15:41:21;;;;;;;15.18;12.32;;;19.00;59.70;;;;;;4747885;30;20074;-82
2021/04/20 15:52:53;;;;;;;16.88;11.32;;;16.40;69.20;;;;;;4844290;24;20527;-83
2021/04/20 16:38:00;;;;;;;14.65;10.88;;;16.10;80.40;;;;;;4770704;30;20165;-80
2021/04/20 16:41:09;;;;;;;17.00;12.52;;;16.40;80.60;;;;;;4743029;30;20056;-79
2021/04/20 16:43:42;;;;;;;17.48;12.27;;;16.90;76.10;;;;;;4756897;30;20146;-80
2021/04/20 16:46:30;;;;;;;14.25;11.32;;;17.30;72.80;;;;;;4770452;30;20052;-80
2021/04/20 16:49:16;;;;;;;15.75;11.73;;;17.70;70.20;;;;;;4777912;30;20074;-80
2021/04/20 16:52:13;;;;;;;14.15;12.20;;;18.00;66.50;;;;;;4778854;30;20095;-81
2021/04/20 16:55:19;;;;;;;14.23;12.15;;;18.20;65.10;;;;;;4780723;30;20056;-80
2021/04/20 16:57:58;;;;;;;15.20;11.10;;;18.40;62.60;;;;;;4695728;30;20155;-80
2021/04/20 17:00:55;;;;;;;14.30;11.88;;;18.70;61.40;;;;;;4750342;30;20055;-80
2021/04/20 17:03:49;;;;;;;14.35;11.68;;;18.90;59.60;;;;;;4753587;30;20496;-80
2021/04/20 17:06:36;;;;;;;14.20;11.23;;;18.90;57.20;;;;;;4753184;30;20619;-79
2021/04/20 19:03:16;;;;;;;15.48;10.38;;;9.50;99.90;;;;;;5157318;24;20047;-81
2021/04/20 19:06:40;;;;;;;14.15;10.00;;;9.40;99.90;;;;;;4771100;30;20115;-81
2021/04/20 19:10:08;;;;;;;15.05;10.57;;;9.20;99.90;;;;;;4771681;30;20047;-81
2021/04/20 19:13:54;;;;;;;14.25;9.93;;;9.00;99.90;;;;;;4768387;30;20111;-82
2021/04/20 19:16:55;;;;;;;14.57;10.32;;;8.90;99.90;;;;;;4761096;30;20058;-81
2021/04/20 19:20:15;;;;;;;15.90;10.95;;;8.80;99.90;;;;;;4773018;30;20055;-81
2021/04/20 19:23:38;;;;;;;14.98;10.88;;;8.70;99.90;;;;;;4755659;30;20055;-81
2021/04/20 19:27:25;;;;;;;15.20;11.07;;;8.60;99.90;;;;;;4765538;30;20059;-82
2021/04/20 19:54:49;;;;;;;18.05;11.48;;;7.70;99.90;;;;;;5022273;24;20059;-80
2021/04/20 19:57:18;;;;;;;18.35;11.68;;;7.60;99.90;;;;;;4788308;30;20083;-81
2021/04/20 19:59:50;;;;;;;16.35;11.02;;;7.50;99.90;;;;;;4774545;30;20058;-81
2021/04/20 20:02:26;;;;;;;18.00;11.93;;;7.40;99.90;;;;;;4758630;30;20054;-80
2021/04/20 20:05:08;;;;;;;18.50;11.32;;;7.40;99.90;;;;;;4788714;30;20055;-81
2021/04/20 20:07:38;;;;;;;19.15;10.77;;;7.30;99.90;;;;;;4788326;30;20081;-82
2021/04/20 20:10:10;;;;;;;17.33;11.95;;;7.20;99.90;;;;;;4787128;30;20055;-81
2021/04/20 20:12:44;;;;;;;17.10;11.02;;;7.20;99.90;;;;;;4788841;29;20089;-81
2021/04/20 20:15:14;;;;;;;;;;;7.20;99.90;;;;;;4791998;29;20055;-81
2021/04/20 20:17:47;;;;;;;25.55;19.58;;;7.10;99.90;;;;;;4803517;29;19926;-81
2021/04/20 20:20:40;;;;;;;26.98;19.05;;;7.20;99.90;;;;;;4771067;30;20094;-81
2021/04/20 20:24:50;;;;;;;21.10;13.55;;;7.10;99.90;;;;;;4792312;30;20081;-81
2021/04/20 20:28:53;;;;;;;18.15;12.25;;;7.10;99.90;;;;;;4763632;30;20065;-80
2021/04/20 20:33:01;;;;;;;18.17;13.48;;;7.20;99.90;;;;;;4730173;30;20128;-81
2021/04/20 20:37:05;;;;;;;16.52;10.95;;;7.00;99.90;;;;;;4743432;30;20086;-81
2021/04/20 20:40:57;;;;;;;17.40;11.90;;;7.10;99.90;;;;;;4690012;30;20269;-81
2021/04/20 20:45:34;;;;;;;16.40;11.20;;;7.20;99.90;;;;;;4696816;30;20096;-81
2021/04/20 20:49:18;;;;;;;14.45;9.85;;;7.20;99.90;;;;;;4714045;30;20040;-81
2021/04/20 20:52:50;;;;;;;13.23;10.10;;;7.10;99.90;;;;;;4785878;24;20073;-81
2021/04/20 21:14:40;;;;;;;15.77;10.07;;;6.70;99.90;;;;;;4693076;30;20087;-78
2021/04/20 21:19:13;;;;;;;15.57;10.75;;;6.70;99.90;;;;;;4679012;30;20065;-78
2021/04/20 21:36:59;;;;;;;16.58;11.43;;;6.10;99.90;;;;;;4680025;30;20118;-77
2021/04/20 21:46:08;;;;;;;16.73;11.88;;;5.90;99.90;;;;;;4696744;30;20059;-78
2021/04/20 22:03:53;;;;;;;15.00;10.27;;;5.70;99.90;;;;;;4662005;30;20109;-77
2021/04/20 22:12:48;;;;;;;19.35;12.85;;;5.80;99.90;;;;;;4644736;30;20357;-77
2021/04/20 22:17:19;;;;;;;17.65;11.35;;;5.70;99.90;;;;;;4644901;30;20045;-77
2021/04/20 22:24:55;;;;;;;18.55;12.13;;;5.40;99.90;;;;;;4676081;30;20132;-77
2021/04/20 22:27:22;;;;;;;19.27;12.30;;;5.40;99.90;;;;;;4681488;30;20049;-77
2021/04/20 22:29:59;;;;;;;18.80;12.52;;;5.30;99.90;;;;;;4681226;30;20049;-77
2021/04/20 22:32:30;;;;;;;17.80;12.63;;;5.40;99.90;;;;;;4681756;30;20072;-78
2021/04/20 22:35:02;;;;;;;19.55;13.00;;;5.40;99.90;;;;;;4730644;30;20492;-77
2021/04/20 22:37:39;;;;;;;18.73;11.68;;;5.40;99.90;;;;;;4734975;30;20052;-78
2021/04/20 22:40:23;;;;;;;19.42;12.48;;;5.40;99.90;;;;;;4735261;30;20056;-78
2021/04/20 22:43:00;;;;;;;19.05;11.70;;;5.40;99.90;;;;;;4734636;30;20163;-77
2021/04/20 22:45:38;;;;;;;19.95;13.05;;;5.50;99.90;;;;;;4734947;30;20147;-78
2021/04/20 22:48:18;;;;;;;16.20;11.65;;;5.40;99.90;;;;;;4733960;30;20151;-78
2021/04/20 22:50:52;;;;;;;24.42;13.38;;;5.40;99.90;;;;;;4734653;30;20056;-78
2021/04/20 22:53:35;;;;;;;19.02;12.07;;;5.40;99.90;;;;;;4735291;30;20085;-78
2021/04/20 22:56:14;;;;;;;17.98;12.70;;;5.30;99.90;;;;;;4735495;30;20052;-78
2021/04/20 22:58:57;;;;;;;17.60;12.32;;;5.30;99.90;;;;;;4719636;30;20048;-78